KGAD

Details ICAO KGAD (GAD)
Name NORTHEAST ALABAMA RGNL
Region United States
Timezone America/Chicago (UTC-6.0)
Plans Departing 16
Arriving 3
Stats Elevation 569 ft / 173 m (AMSL)
Location 33.973115° -86.088625°
Runways 2
Magnetic Variation 3.987° W
Sunrise 2017-12-18 12:45:41 UTC / 2017-12-18 06:45:41 Local
Sunset 2017-12-18 22:39:11 UTC / 2017-12-18 16:39:11 Local
Advertisement - Login to hide

Runways

ID Width Length Bearing (true) Bearing (mag) Surface Threshold Offset Overrun Length
06 150 ft / 46 m 6,797 ft / 2,072 m 60.63° 64.62° Asphalt 0 ft / 0 m 0 ft / 0 m
18 150 ft / 46 m 4,819 ft / 1,469 m 180.25° 184.24° Asphalt 0 ft / 0 m 0 ft / 0 m
24 150 ft / 46 m 6,797 ft / 2,072 m 240.64° 244.63° Asphalt 0 ft / 0 m 0 ft / 0 m
36 150 ft / 46 m 4,819 ft / 1,469 m 0.25° 4.24° Asphalt 0 ft / 0 m 0 ft / 0 m

Map

Weather


0- 5 10 15 20 25 30 35+ Temperature / ° C

Clouds and Precipitation
Forecast for 2017-12-19 00:00 UTC. Updated an hour ago

Ground ~20,000 ft ~40,000 ft Winds

METAR

KGAD 182156Z AUTO 14006KT 10SM CLR 14/12 A3018 RMK AO2 SLP225 T01390122

TAF

Not found

Frequencies

Recorded 127.82 MHz AWOS 3
Approach 120.05 MHz BIRMINGHAM APP/DEP
Unicom 122.80 MHz CTAF/UNICOM
Warning: Do not use this data for real-world aviation or navigation. No guarantee of current accuracy is given.